Dunn, Louisiana
Current Conditions -  °F | °C
As of 2:15 AM on Sunday 21 Dec 2014 (Local Time) from KBQP Reporting Station
Clear Clear  
Wind Chill: 37°   Ceiling: Unl
Heat Index: 37°   Visibility: 7mi
Dew Point: 35°   Wind: 3mph
Humidity: 95%   Direction: 60°ENE
Pressure: 30.2"   Gusts: NA
Location:  32.4445°N, 91.5289°W
Report Text: KBQP 210815Z AUTO 06003KT 7SM CLR 03/02 A3020 RMK AO2 T00260019
Loading
Personal Weather Stations






























Interactive Weather Map New forecast layout! Learn more

10-Day Weather Forecast

Advertisements
Track Severe Weather on mobile